Time;durP1;ratioP1;P1;durP2;ratioP2;P2;SDS_P1;SDS_P2;PMS_P1;PMS_P2;Temp;Humidity;BMP_temperature;BMP_pressure;BME280_temperature;BME280_humidity;BME280_pressure;Samples;Min_cycle;Max_cycle;Signal;HPM_P1;HPM_P2
2023/02/07 00:00:04;;;;;;;15.70;8.98;;;-6.00;99.90;;;;;;7385880;19;20317;-79
2023/02/07 00:02:40;;;;;;;14.80;9.63;;;-6.10;99.90;;;;;;7388517;19;20355;-80
2023/02/07 00:05:06;;;;;;;17.23;10.35;;;-6.10;99.90;;;;;;7387183;19;21321;-83
2023/02/07 00:07:32;;;;;;;12.88;8.45;;;-6.20;99.90;;;;;;7387831;19;20352;-81
2023/02/07 00:09:57;;;;;;;14.73;9.30;;;-6.20;99.90;;;;;;7387843;19;20304;-82
2023/02/07 00:12:23;;;;;;;17.87;10.07;;;-6.20;99.90;;;;;;7387223;19;20337;-79
2023/02/07 00:14:49;;;;;;;17.15;9.77;;;-6.20;99.90;;;;;;7386415;19;20375;-79
2023/02/07 00:17:14;;;;;;;13.23;8.60;;;-6.30;99.90;;;;;;7386704;19;20325;-80
2023/02/07 00:19:40;;;;;;;13.00;8.70;;;-6.30;99.90;;;;;;7386730;19;20699;-83
2023/02/07 00:22:05;;;;;;;17.00;10.43;;;-6.30;99.90;;;;;;7387020;19;20328;-82
2023/02/07 00:24:31;;;;;;;16.10;10.13;;;-6.30;99.90;;;;;;7386931;19;20902;-79
2023/02/07 00:26:56;;;;;;;15.77;10.40;;;-6.40;99.90;;;;;;7387081;19;20305;-79
2023/02/07 00:29:22;;;;;;;17.97;10.60;;;-6.40;99.90;;;;;;7386897;19;20313;-83
2023/02/07 00:31:53;;;;;;;14.25;9.45;;;-6.70;99.90;;;;;;7385909;19;20395;-80
2023/02/07 00:34:19;;;;;;;16.83;9.65;;;-6.60;99.90;;;;;;7386932;19;20333;-79
2023/02/07 00:36:45;;;;;;;18.07;10.37;;;-6.70;99.90;;;;;;7386598;19;20391;-85
2023/02/07 00:39:12;;;;;;;14.38;9.43;;;-6.70;99.90;;;;;;7386177;19;20683;-85
2023/02/07 00:41:38;;;;;;;17.45;9.98;;;-6.70;99.90;;;;;;7387352;19;20456;-79
2023/02/07 00:44:11;;;;;;;16.23;9.00;;;-6.60;99.90;;;;;;7385191;19;20352;-78
2023/02/07 00:46:36;;;;;;;16.55;9.32;;;-6.60;99.90;;;;;;7388313;19;20341;-81
2023/02/07 00:49:02;;;;;;;17.60;10.40;;;-6.60;99.90;;;;;;7385357;19;20673;-77
2023/02/07 00:51:29;;;;;;;15.05;9.35;;;-6.70;99.90;;;;;;7384901;19;20345;-83
2023/02/07 00:53:55;;;;;;;14.18;8.90;;;-6.70;99.90;;;;;;7386337;19;20671;-81
2023/02/07 00:56:23;;;;;;;18.02;10.27;;;-6.70;99.90;;;;;;7385106;19;20316;-79
2023/02/07 00:58:49;;;;;;;14.35;9.20;;;-6.70;99.90;;;;;;7385636;19;20454;-78
2023/02/07 01:01:15;;;;;;;17.88;9.40;;;-6.80;99.90;;;;;;7385227;19;20317;-79
2023/02/07 01:03:40;;;;;;;14.68;9.15;;;-6.90;99.90;;;;;;7382986;19;20324;-78
2023/02/07 01:06:06;;;;;;;11.97;9.10;;;-7.00;99.90;;;;;;7385771;19;20313;-80
2023/02/07 01:08:32;;;;;;;14.05;8.93;;;-7.00;99.90;;;;;;7385048;19;20913;-78
2023/02/07 01:11:10;;;;;;;15.18;8.38;;;-6.90;99.90;;;;;;7385958;19;20330;-78
2023/02/07 01:13:37;;;;;;;13.83;8.87;;;-6.80;99.90;;;;;;7282152;19;2004424;-78
2023/02/07 01:16:03;;;;;;;12.87;8.83;;;-6.80;99.90;;;;;;7384850;19;20320;-79
2023/02/07 01:18:28;;;;;;;14.90;9.45;;;-6.80;99.90;;;;;;7385449;19;20319;-79
2023/02/07 01:20:56;;;;;;;12.23;8.18;;;-6.80;99.90;;;;;;7375412;19;20316;-81
2023/02/07 01:23:22;;;;;;;13.50;9.20;;;-6.80;99.90;;;;;;7384956;19;20381;-82
2023/02/07 01:25:47;;;;;;;15.50;10.20;;;-6.80;99.90;;;;;;7384957;19;20321;-79
2023/02/07 01:28:13;;;;;;;18.00;10.47;;;-6.90;99.90;;;;;;7384156;19;20340;-80
2023/02/07 01:30:39;;;;;;;16.57;10.67;;;-7.10;99.90;;;;;;7382210;19;20357;-80
2023/02/07 01:33:06;;;;;;;12.50;8.82;;;-7.20;99.90;;;;;;7371872;19;20396;-80
2023/02/07 01:35:32;;;;;;;17.07;9.73;;;-7.10;99.90;;;;;;7384514;19;20412;-80
2023/02/07 01:37:58;;;;;;;16.27;9.43;;;-7.20;99.90;;;;;;7386071;19;20401;-82
2023/02/07 01:40:24;;;;;;;14.43;8.43;;;-7.20;99.90;;;;;;7383579;19;20903;-81
2023/02/07 01:42:50;;;;;;;15.85;8.10;;;-7.20;99.90;;;;;;7385102;19;20367;-79
2023/02/07 01:45:34;;;;;;;13.38;8.13;;;-7.10;99.90;;;;;;7383555;19;20332;-79
2023/02/07 01:48:03;;;;;;;17.97;10.53;;;-7.10;99.90;;;;;;7386060;19;21129;-79
2023/02/07 01:50:29;;;;;;;19.50;9.38;;;-7.20;99.90;;;;;;7387162;19;20679;-81
2023/02/07 01:52:54;;;;;;;14.05;8.85;;;-7.20;99.90;;;;;;7403235;19;20320;-80
2023/02/07 01:55:26;;;;;;;13.18;8.90;;;-7.20;99.90;;;;;;7401308;19;20304;-84
2023/02/07 01:57:52;;;;;;;15.10;9.55;;;-7.30;99.90;;;;;;7391445;19;20324;-82
2023/02/07 02:00:18;;;;;;;14.07;8.80;;;-7.40;99.90;;;;;;7383948;19;20337;-79
2023/02/07 02:02:44;;;;;;;16.00;9.45;;;-7.40;99.90;;;;;;7383225;19;20317;-81
2023/02/07 02:05:11;;;;;;;13.30;8.38;;;-7.40;99.90;;;;;;7381118;19;20320;-79
2023/02/07 02:07:37;;;;;;;13.60;8.50;;;-7.40;99.90;;;;;;7385236;19;20340;-81
2023/02/07 02:10:13;;;;;;;15.60;9.37;;;-7.40;99.90;;;;;;7381619;19;20600;-79
2023/02/07 02:12:58;;;;;;;11.63;7.70;;;-7.40;99.90;;;;;;7382717;19;20762;-83
2023/02/07 02:15:35;;;;;;;13.73;8.67;;;-7.40;99.90;;;;;;7382453;19;20312;-82
2023/02/07 02:18:07;;;;;;;12.97;8.20;;;-7.50;99.90;;;;;;7383369;19;20317;-83
2023/02/07 02:20:57;;;;;;;16.40;8.97;;;-7.40;99.90;;;;;;7279061;19;2005979;-81
2023/02/07 02:23:59;;;;;;;13.18;8.23;;;-7.40;99.90;;;;;;7382050;19;20388;-78
2023/02/07 02:26:50;;;;;;;11.30;8.40;;;-7.40;99.90;;;;;;7281260;19;2003982;-82
2023/02/07 02:29:45;;;;;;;13.75;9.43;;;-7.30;99.90;;;;;;7278023;19;2017726;-79
2023/02/07 02:32:38;;;;;;;13.30;8.17;;;-7.40;99.90;;;;;;7278596;19;2004260;-81
2023/02/07 02:35:28;;;;;;;12.77;8.10;;;-7.50;99.90;;;;;;7277446;19;2005819;-82
2023/02/07 02:38:07;;;;;;;13.60;9.00;;;-7.40;99.90;;;;;;7379016;19;20304;-79
2023/02/07 02:41:03;;;;;;;14.70;9.23;;;-7.50;99.90;;;;;;7278742;19;2004673;-82
2023/02/07 02:43:34;;;;;;;13.65;8.57;;;-7.50;99.90;;;;;;7383161;19;20340;-80
2023/02/07 02:46:06;;;;;;;13.45;8.70;;;-7.50;99.90;;;;;;7383701;19;20325;-84
2023/02/07 02:48:31;;;;;;;13.10;8.23;;;-7.40;99.90;;;;;;7382753;19;20380;-84
2023/02/07 02:50:57;;;;;;;15.87;9.63;;;-7.40;99.90;;;;;;7381460;19;20324;-78
2023/02/07 02:53:22;;;;;;;13.18;9.00;;;-7.50;99.90;;;;;;7382993;19;20332;-78
2023/02/07 02:55:52;;;;;;;14.73;7.70;;;-7.50;99.90;;;;;;7383175;19;20349;-81
2023/02/07 02:58:36;;;;;;;12.00;8.15;;;-7.40;99.90;;;;;;7383379;19;20419;-80
2023/02/07 03:01:34;;;;;;;11.88;7.63;;;-7.50;99.90;;;;;;7381284;19;20333;-78
2023/02/07 03:04:26;;;;;;;18.63;8.95;;;-7.40;99.90;;;;;;7176975;19;2004353;-83
2023/02/07 03:07:06;;;;;;;13.88;8.13;;;-7.70;99.90;;;;;;7281140;19;2004216;-80
2023/02/07 03:09:54;;;;;;;15.50;8.65;;;-7.70;99.90;;;;;;7279304;19;2004252;-78
2023/02/07 03:12:42;;;;;;;12.80;8.07;;;-7.70;99.90;;;;;;7382123;19;20330;-78
2023/02/07 03:15:36;;;;;;;13.20;8.27;;;-7.60;99.90;;;;;;7278170;19;2018929;-81
2023/02/07 03:18:15;;;;;;;11.63;8.15;;;-7.60;99.90;;;;;;7277836;19;2004380;-79
2023/02/07 03:20:55;;;;;;;15.77;8.80;;;-7.70;99.90;;;;;;7379289;19;20344;-85
2023/02/07 03:23:21;;;;;;;12.38;8.73;;;-7.70;99.90;;;;;;7378770;19;20353;-81
2023/02/07 03:25:47;;;;;;;12.30;7.90;;;-7.70;99.90;;;;;;7379764;19;20701;-79
2023/02/07 03:28:13;;;;;;;14.48;8.70;;;-7.60;99.90;;;;;;7379921;19;20328;-83
2023/02/07 03:30:41;;;;;;;13.97;8.27;;;-7.60;99.90;;;;;;7379602;19;20329;-82
2023/02/07 03:33:08;;;;;;;11.88;8.30;;;-7.60;99.90;;;;;;7381258;19;20357;-80
2023/02/07 03:35:38;;;;;;;13.35;8.38;;;-7.60;99.90;;;;;;7380909;19;20336;-78
2023/02/07 03:38:03;;;;;;;14.73;8.77;;;-7.60;99.90;;;;;;7380964;19;20312;-85
2023/02/07 03:40:32;;;;;;;13.83;8.63;;;-7.60;99.90;;;;;;7381890;19;20341;-81
2023/02/07 03:43:03;;;;;;;13.90;8.83;;;-7.60;99.90;;;;;;7381588;19;20687;-81
2023/02/07 03:45:28;;;;;;;12.07;7.50;;;-7.70;99.90;;;;;;7381033;19;20421;-82
2023/02/07 03:47:54;;;;;;;15.43;8.63;;;-7.70;99.90;;;;;;7380834;19;20905;-83
2023/02/07 03:50:19;;;;;;;15.38;9.02;;;-7.60;99.90;;;;;;7379077;19;20316;-80
2023/02/07 03:52:45;;;;;;;14.27;8.13;;;-7.70;99.90;;;;;;7379838;19;20370;-81
2023/02/07 03:55:10;;;;;;;12.30;8.55;;;-7.80;99.90;;;;;;7381384;19;20657;-81
2023/02/07 03:57:36;;;;;;;12.03;7.87;;;-7.70;99.90;;;;;;7380035;19;20374;-80
2023/02/07 04:00:03;;;;;;;13.47;9.00;;;-7.80;99.90;;;;;;7380893;19;20763;-80
2023/02/07 04:02:38;;;;;;;18.05;9.73;;;-7.80;99.90;;;;;;7277681;19;2004500;-78
2023/02/07 04:05:03;;;;;;;11.65;8.05;;;-7.80;99.90;;;;;;7378737;19;20315;-81
2023/02/07 04:07:29;;;;;;;12.67;8.50;;;-7.90;99.90;;;;;;7381799;19;20916;-84
2023/02/07 04:09:54;;;;;;;13.40;8.23;;;-7.90;99.90;;;;;;7378905;19;20961;-80
2023/02/07 04:12:20;;;;;;;12.23;8.85;;;-7.90;99.90;;;;;;7381559;19;20407;-79
2023/02/07 04:14:46;;;;;;;13.40;8.07;;;-7.90;99.90;;;;;;7384804;19;20936;-82
2023/02/07 04:17:11;;;;;;;12.73;7.93;;;-7.90;99.90;;;;;;7387448;19;20332;-78
2023/02/07 04:19:37;;;;;;;12.32;8.50;;;-7.90;99.90;;;;;;7384964;19;20369;-81
2023/02/07 04:22:02;;;;;;;11.77;7.97;;;-7.90;99.90;;;;;;7387770;19;20316;-85
2023/02/07 04:24:30;;;;;;;12.68;7.72;;;-7.90;99.90;;;;;;7387724;19;20359;-79
2023/02/07 04:26:57;;;;;;;14.10;9.23;;;-7.90;99.90;;;;;;7385244;19;20305;-80
2023/02/07 04:29:23;;;;;;;14.90;8.90;;;-7.90;99.90;;;;;;7386159;19;20328;-84
2023/02/07 04:31:48;;;;;;;16.83;9.63;;;-7.90;99.90;;;;;;7385980;19;20345;-83
2023/02/07 04:34:14;;;;;;;16.02;8.43;;;-8.00;99.90;;;;;;7385002;19;20340;-79
2023/02/07 04:36:39;;;;;;;12.90;8.87;;;-7.90;99.90;;;;;;7385550;19;20387;-80
2023/02/07 04:39:05;;;;;;;14.33;7.37;;;-8.10;99.90;;;;;;7384020;19;20332;-85
2023/02/07 04:41:30;;;;;;;15.85;8.77;;;-8.00;99.90;;;;;;7388762;19;20898;-82
2023/02/07 04:43:57;;;;;;;16.57;8.83;;;-8.00;99.90;;;;;;7385563;19;20376;-80
2023/02/07 04:46:23;;;;;;;12.82;8.68;;;-8.10;99.90;;;;;;7384878;19;20668;-78
2023/02/07 04:48:49;;;;;;;11.35;8.40;;;-8.00;99.90;;;;;;7384837;19;20364;-81
2023/02/07 04:51:14;;;;;;;13.87;8.60;;;-8.10;99.90;;;;;;7386994;19;20320;-78
2023/02/07 04:53:40;;;;;;;14.67;8.30;;;-8.00;99.90;;;;;;7385175;19;20353;-83
2023/02/07 04:56:06;;;;;;;12.00;8.07;;;-8.00;99.90;;;;;;7386020;19;20317;-81
2023/02/07 04:58:32;;;;;;;14.07;8.65;;;-8.00;99.90;;;;;;7386711;19;21083;-81
2023/02/07 05:00:57;;;;;;;12.35;8.55;;;-8.00;99.90;;;;;;7385165;19;20702;-85
2023/02/07 05:03:23;;;;;;;13.00;8.10;;;-8.00;99.90;;;;;;7384728;19;20309;-79
2023/02/07 05:05:50;;;;;;;11.93;7.90;;;-8.00;99.90;;;;;;7386721;19;20415;-81
2023/02/07 05:08:16;;;;;;;15.98;9.57;;;-8.00;99.90;;;;;;7386122;19;20797;-81
2023/02/07 05:10:42;;;;;;;14.07;8.10;;;-8.00;99.90;;;;;;7383934;19;20356;-83
2023/02/07 05:13:07;;;;;;;14.80;9.17;;;-8.00;99.90;;;;;;7385539;19;20341;-83
2023/02/07 05:15:33;;;;;;;14.90;9.43;;;-8.00;99.90;;;;;;7383079;19;20357;-81
2023/02/07 05:17:58;;;;;;;15.23;8.93;;;-8.00;99.90;;;;;;7386263;19;20313;-84
2023/02/07 05:20:25;;;;;;;14.65;10.13;;;-8.10;99.90;;;;;;7384727;19;20309;-79
2023/02/07 05:22:51;;;;;;;16.67;10.18;;;-8.10;99.90;;;;;;7385574;19;20978;-85
2023/02/07 05:25:16;;;;;;;14.77;9.37;;;-8.10;99.90;;;;;;7385050;19;20863;-81
2023/02/07 05:27:42;;;;;;;15.97;8.70;;;-8.10;99.90;;;;;;7383477;19;20353;-83
2023/02/07 05:30:08;;;;;;;14.15;9.32;;;-8.10;99.90;;;;;;7383581;19;20317;-80
2023/02/07 05:35:19;;;;;;;15.35;8.70;;;-8.10;99.90;;;;;;7382561;19;20335;-82
2023/02/07 05:37:44;;;;;;;15.73;9.00;;;-8.10;99.90;;;;;;7386455;19;20345;-81
2023/02/07 05:40:11;;;;;;;16.30;8.93;;;-8.00;99.90;;;;;;7381968;19;20319;-80
2023/02/07 05:42:37;;;;;;;13.00;8.05;;;-8.10;99.90;;;;;;7383963;19;20913;-81
2023/02/07 05:45:04;;;;;;;15.90;9.03;;;-8.00;99.90;;;;;;7381781;19;20309;-81
2023/02/07 05:47:29;;;;;;;12.40;7.50;;;-8.10;99.90;;;;;;7387061;19;20704;-84
2023/02/07 05:49:55;;;;;;;11.97;8.13;;;-8.00;99.90;;;;;;7381162;19;20304;-79
2023/02/07 05:52:20;;;;;;;13.97;8.07;;;-8.00;99.90;;;;;;7379782;19;20333;-80
2023/02/07 05:54:46;;;;;;;13.23;8.48;;;-8.00;99.90;;;;;;7382420;19;20357;-79
2023/02/07 05:57:12;;;;;;;13.07;8.48;;;-8.10;99.90;;;;;;7383353;19;20675;-80
2023/02/07 05:59:37;;;;;;;17.20;8.80;;;-8.10;99.90;;;;;;7381671;19;20343;-78
2023/02/07 06:02:05;;;;;;;13.05;8.52;;;-8.10;99.90;;;;;;7383349;19;20379;-79
2023/02/07 06:04:30;;;;;;;14.57;8.40;;;-8.10;99.90;;;;;;7384113;19;20341;-79
2023/02/07 06:06:56;;;;;;;15.33;9.10;;;-8.10;99.90;;;;;;7384927;19;20323;-82
2023/02/07 06:09:21;;;;;;;13.98;8.95;;;-8.10;99.90;;;;;;7382145;19;20348;-79
2023/02/07 06:11:47;;;;;;;19.00;10.23;;;-8.00;99.90;;;;;;7382638;19;20444;-80
2023/02/07 06:14:13;;;;;;;13.88;9.25;;;-8.10;99.90;;;;;;7382726;19;20385;-82
2023/02/07 06:16:38;;;;;;;17.47;10.57;;;-8.20;99.90;;;;;;7388200;19;20989;-78
2023/02/07 06:19:04;;;;;;;18.07;9.33;;;-8.30;99.90;;;;;;7381923;19;20320;-81
2023/02/07 06:21:29;;;;;;;14.25;8.88;;;-8.30;99.90;;;;;;7385221;19;20423;-83
2023/02/07 06:23:55;;;;;;;16.60;9.70;;;-8.30;99.90;;;;;;7381206;19;20301;-83
2023/02/07 06:26:20;;;;;;;14.70;9.37;;;-8.20;99.90;;;;;;7383187;19;20384;-78
2023/02/07 06:28:46;;;;;;;17.25;10.02;;;-8.20;99.90;;;;;;7382128;19;20356;-78
2023/02/07 06:31:12;;;;;;;18.00;12.23;;;-8.20;99.90;;;;;;7381654;19;20382;-79
2023/02/07 06:33:37;;;;;;;20.77;13.98;;;-8.20;99.90;;;;;;7381384;19;20349;-82
2023/02/07 06:36:03;;;;;;;21.73;14.93;;;-8.20;99.90;;;;;;7380060;19;20324;-82
2023/02/07 06:38:29;;;;;;;20.90;13.23;;;-8.30;99.90;;;;;;7385600;19;20432;-80
2023/02/07 06:40:54;;;;;;;20.23;12.33;;;-8.30;99.90;;;;;;7381773;19;20312;-80
2023/02/07 06:43:20;;;;;;;19.27;11.35;;;-8.30;99.90;;;;;;7382054;19;20814;-82
2023/02/07 06:45:46;;;;;;;16.83;10.67;;;-8.30;99.90;;;;;;7382999;19;20348;-80
2023/02/07 06:48:11;;;;;;;16.40;8.97;;;-8.30;99.90;;;;;;7382068;19;20312;-80
2023/02/07 06:50:37;;;;;;;15.55;9.93;;;-8.20;99.90;;;;;;7380484;19;20345;-79
2023/02/07 06:53:02;;;;;;;15.47;8.60;;;-8.20;99.90;;;;;;7381935;19;20371;-79
2023/02/07 06:55:29;;;;;;;13.30;8.80;;;-8.20;99.90;;;;;;7382479;19;20356;-81
2023/02/07 06:57:55;;;;;;;16.50;9.32;;;-8.30;99.90;;;;;;7382543;19;20384;-85
2023/02/07 07:00:20;;;;;;;17.60;9.82;;;-8.20;99.90;;;;;;7380050;19;20333;-80
2023/02/07 07:02:46;;;;;;;17.98;9.77;;;-8.30;99.90;;;;;;7382411;19;20774;-83
2023/02/07 07:05:12;;;;;;;14.13;9.57;;;-8.20;99.90;;;;;;7380264;19;20320;-79
2023/02/07 07:07:38;;;;;;;14.82;9.57;;;-8.20;99.90;;;;;;7382381;19;20349;-80
2023/02/07 07:10:04;;;;;;;15.57;9.07;;;-8.10;99.90;;;;;;7380795;19;20323;-80
2023/02/07 07:12:29;;;;;;;16.30;9.27;;;-8.10;99.90;;;;;;7383440;19;20352;-83
2023/02/07 07:14:55;;;;;;;14.23;9.17;;;-8.10;99.90;;;;;;7382620;19;20317;-83
2023/02/07 07:17:20;;;;;;;12.02;8.50;;;-8.00;99.90;;;;;;7381859;19;20356;-80
2023/02/07 07:19:46;;;;;;;15.20;9.37;;;-8.00;99.90;;;;;;7380382;19;21008;-80
2023/02/07 07:22:12;;;;;;;17.30;9.57;;;-8.00;99.90;;;;;;7381252;19;20354;-81
2023/02/07 07:24:37;;;;;;;16.65;10.38;;;-8.00;99.90;;;;;;7382905;19;20432;-79
2023/02/07 07:27:03;;;;;;;13.47;9.00;;;-8.00;99.90;;;;;;7382067;19;20316;-82
2023/02/07 07:29:28;;;;;;;18.02;10.43;;;-8.00;99.90;;;;;;7381550;19;21017;-85
2023/02/07 07:31:54;;;;;;;16.47;10.40;;;-7.90;99.90;;;;;;7380806;19;20646;-80
2023/02/07 07:34:19;;;;;;;14.57;9.10;;;-7.90;99.90;;;;;;7378746;19;20393;-83
2023/02/07 07:36:47;;;;;;;13.80;9.40;;;-7.90;99.90;;;;;;7379246;19;20368;-79
2023/02/07 07:39:13;;;;;;;17.47;9.97;;;-7.70;99.90;;;;;;7381055;19;20377;-85
2023/02/07 07:41:39;;;;;;;14.73;9.60;;;-7.80;99.90;;;;;;7381805;19;20344;-81
2023/02/07 07:44:09;;;;;;;20.20;12.15;;;-7.80;99.90;;;;;;7378984;19;20320;-79
2023/02/07 07:46:35;;;;;;;21.33;11.38;;;-7.80;99.90;;;;;;7378986;19;20348;-82
2023/02/07 07:49:01;;;;;;;19.77;9.67;;;-7.90;99.90;;;;;;7387546;19;20335;-83
2023/02/07 07:51:26;;;;;;;16.77;10.27;;;-7.90;99.90;;;;;;7389832;19;20818;-78
2023/02/07 07:54:00;;;;;;;16.58;9.98;;;-7.90;99.90;;;;;;7388536;19;20348;-80
2023/02/07 07:56:28;;;;;;;16.00;10.88;;;-7.80;99.90;;;;;;7388913;19;20313;-81
2023/02/07 07:58:54;;;;;;;17.98;11.75;;;-7.80;99.90;;;;;;7393058;19;20656;-81
2023/02/07 08:01:19;;;;;;;18.05;11.30;;;-7.70;99.90;;;;;;7377187;19;20881;-83
2023/02/07 08:03:45;;;;;;;14.53;9.50;;;-7.60;99.90;;;;;;7397503;19;20339;-81
2023/02/07 08:06:11;;;;;;;17.63;10.95;;;-7.60;99.90;;;;;;7398918;19;20308;-83
2023/02/07 08:08:36;;;;;;;20.17;12.30;;;-7.70;99.90;;;;;;7399111;19;20301;-84
2023/02/07 08:11:06;;;;;;;21.80;12.93;;;-7.60;99.90;;;;;;7400030;19;20304;-87
2023/02/07 08:13:32;;;;;;;25.67;15.27;;;-7.50;99.90;;;;;;7400770;19;20740;-84
2023/02/07 08:15:57;;;;;;;29.25;16.10;;;-7.60;99.90;;;;;;7401147;19;20324;-85
2023/02/07 08:18:23;;;;;;;18.73;12.30;;;-7.80;99.90;;;;;;7401538;19;20327;-93
2023/02/07 08:20:49;;;;;;;27.05;13.80;;;-7.70;99.90;;;;;;7402866;19;20324;-89
2023/02/07 08:23:17;;;;;;;26.40;16.88;;;-7.60;99.90;;;;;;7399962;19;20308;-90
2023/02/07 08:25:42;;;;;;;26.52;17.00;;;-7.60;99.90;;;;;;7399065;19;20968;-91
2023/02/07 08:28:08;;;;;;;28.03;16.13;;;-7.70;99.90;;;;;;7400745;19;20309;-91
2023/02/07 08:30:35;;;;;;;28.93;16.70;;;-7.70;99.90;;;;;;7382043;19;20861;-81
2023/02/07 08:33:01;;;;;;;24.90;16.02;;;-7.60;99.90;;;;;;7385347;19;20335;-79
2023/02/07 08:35:26;;;;;;;19.23;12.77;;;-7.60;99.90;;;;;;7383257;19;20332;-76
2023/02/07 08:37:52;;;;;;;26.98;15.70;;;-7.50;99.90;;;;;;7385379;19;20693;-78
2023/02/07 08:40:20;;;;;;;29.50;17.33;;;-7.40;99.90;;;;;;7389309;19;20308;-84
2023/02/07 08:42:46;;;;;;;25.80;16.05;;;-7.40;99.90;;;;;;7389368;19;20639;-89
2023/02/07 08:45:11;;;;;;;26.05;16.27;;;-7.30;99.90;;;;;;7391784;19;20369;-82
2023/02/07 08:47:37;;;;;;;25.85;14.80;;;-7.30;99.90;;;;;;7389243;19;20324;-84
2023/02/07 08:50:05;;;;;;;23.33;14.13;;;-7.30;99.90;;;;;;7387359;19;20858;-86
2023/02/07 08:52:30;;;;;;;24.65;14.15;;;-7.20;99.90;;;;;;7391233;19;20305;-80
2023/02/07 08:54:56;;;;;;;21.80;14.90;;;-7.10;99.90;;;;;;7390330;19;20323;-81
2023/02/07 08:57:24;;;;;;;21.37;13.40;;;-6.90;99.90;;;;;;7390478;19;20321;-87
2023/02/07 08:59:51;;;;;;;21.73;14.00;;;-6.90;99.90;;;;;;7383320;19;20370;-83
2023/02/07 09:02:16;;;;;;;23.98;14.32;;;-6.80;99.90;;;;;;7383729;19;21093;-84
2023/02/07 09:04:42;;;;;;;20.70;13.60;;;-6.70;99.90;;;;;;7384621;19;20376;-77
2023/02/07 09:07:10;;;;;;;21.07;13.23;;;-6.60;99.90;;;;;;7385654;19;20319;-81
2023/02/07 09:09:38;;;;;;;22.63;14.05;;;-6.60;99.90;;;;;;7383571;19;21323;-80
2023/02/07 09:12:05;;;;;;;25.02;15.55;;;-6.50;99.90;;;;;;7386166;19;20684;-83
2023/02/07 09:14:30;;;;;;;22.80;15.25;;;-6.50;99.90;;;;;;7383765;19;20401;-78
2023/02/07 09:16:56;;;;;;;24.40;14.48;;;-6.40;99.90;;;;;;7387245;19;20320;-80
2023/02/07 09:19:21;;;;;;;23.10;14.93;;;-6.40;99.90;;;;;;7384913;19;20392;-79
2023/02/07 09:21:47;;;;;;;23.70;14.07;;;-6.30;99.90;;;;;;7386907;19;20871;-82
2023/02/07 09:24:12;;;;;;;24.63;14.40;;;-6.10;99.90;;;;;;7386169;19;20335;-83
2023/02/07 09:26:38;;;;;;;23.05;13.68;;;-6.00;99.90;;;;;;7387099;19;20373;-79
2023/02/07 09:29:05;;;;;;;22.83;14.00;;;-6.00;99.90;;;;;;7385079;19;20331;-88
2023/02/07 09:31:30;;;;;;;21.45;14.32;;;-5.80;99.90;;;;;;7386994;19;20403;-84
2023/02/07 09:33:56;;;;;;;25.92;14.57;;;-5.80;99.90;;;;;;7386841;19;20412;-81
2023/02/07 09:36:24;;;;;;;21.45;13.15;;;-5.70;99.90;;;;;;7387484;19;20305;-81
2023/02/07 09:38:50;;;;;;;20.20;13.13;;;-5.60;99.90;;;;;;7384954;19;20353;-77
2023/02/07 09:41:28;;;;;;;21.60;13.52;;;-5.50;99.90;;;;;;7387841;19;20349;-85
2023/02/07 09:44:04;;;;;;;22.67;13.68;;;-5.40;99.90;;;;;;7384402;19;20325;-88
2023/02/07 09:46:35;;;;;;;20.77;12.98;;;-5.20;99.90;;;;;;7387410;19;20317;-80
2023/02/07 09:49:09;;;;;;;20.45;13.63;;;-5.10;99.90;;;;;;7381200;19;20328;-79
2023/02/07 09:51:35;;;;;;;20.45;13.40;;;-5.00;99.90;;;;;;7282837;19;2020171;-78
2023/02/07 09:54:03;;;;;;;23.73;15.70;;;-4.90;99.90;;;;;;7385635;19;20309;-84
2023/02/07 09:56:28;;;;;;;26.13;16.30;;;-4.70;99.90;;;;;;7385628;19;20301;-82
2023/02/07 09:58:59;;;;;;;22.83;14.30;;;-4.50;99.90;;;;;;7385862;19;20474;-79
2023/02/07 10:01:27;;;;;;;25.77;16.23;;;-4.40;99.90;;;;;;7387041;19;20320;-87
2023/02/07 10:04:11;;;;;;;21.52;13.82;;;-4.30;99.90;;;;;;7381866;19;20805;-77
2023/02/07 10:06:37;;;;;;;24.70;15.75;;;-4.10;99.90;;;;;;7285920;19;2004354;-80
2023/02/07 10:09:09;;;;;;;22.90;15.63;;;-3.90;99.90;;;;;;7385282;19;20847;-78
2023/02/07 10:11:44;;;;;;;22.30;15.18;;;-3.80;99.90;;;;;;7281745;19;2019563;-81
2023/02/07 10:14:16;;;;;;;24.50;14.97;;;-3.70;99.90;;;;;;7384719;19;20964;-81
2023/02/07 10:17:04;;;;;;;21.83;15.38;;;-3.60;99.90;;;;;;7382131;19;20357;-81
2023/02/07 10:19:51;;;;;;;19.58;12.27;;;-3.50;99.90;;;;;;7382728;19;20972;-90
2023/02/07 10:22:52;;;;;;;20.77;13.02;;;-3.60;99.90;;;;;;7284662;19;2004225;-77
2023/02/07 10:25:26;;;;;;;19.90;14.43;;;-3.60;99.90;;;;;;7281499;19;2004326;-83
2023/02/07 10:28:04;;;;;;;22.87;14.07;;;-3.60;99.90;;;;;;7385444;19;20700;-83
2023/02/07 10:30:32;;;;;;;22.33;14.10;;;-3.70;99.90;;;;;;7383271;19;20355;-78
2023/02/07 10:33:00;;;;;;;21.73;15.20;;;-3.60;99.90;;;;;;7381086;19;20293;-78
2023/02/07 10:35:36;;;;;;;21.70;13.25;;;-3.60;99.90;;;;;;7381058;19;20296;-80
2023/02/07 10:38:03;;;;;;;22.13;13.67;;;-3.50;99.90;;;;;;7383430;19;20873;-78
2023/02/07 10:40:53;;;;;;;20.27;13.30;;;-3.40;99.90;;;;;;7381635;19;20313;-82
2023/02/07 10:43:31;;;;;;;23.52;15.48;;;-3.20;99.90;;;;;;7281586;19;2004317;-78
2023/02/07 10:46:14;;;;;;;24.27;14.43;;;-3.00;99.90;;;;;;7390678;19;20324;-78
2023/02/07 10:48:40;;;;;;;18.67;13.27;;;-2.80;99.90;;;;;;7282073;19;2004960;-79
2023/02/07 10:51:17;;;;;;;17.08;13.38;;;-2.70;99.90;;;;;;7383295;19;20331;-79
2023/02/07 10:53:48;;;;;;;19.92;14.15;;;-2.50;99.90;;;;;;7381078;19;21099;-77
2023/02/07 10:56:18;;;;;;;19.65;14.27;;;-2.30;99.90;;;;;;7384921;19;20339;-78
2023/02/07 10:58:43;;;;;;;23.73;15.75;;;-2.20;99.90;;;;;;7381391;19;20324;-77
2023/02/07 11:01:20;;;;;;;22.07;16.47;;;-2.10;99.90;;;;;;7380184;19;20311;-80
2023/02/07 11:03:47;;;;;;;23.35;15.88;;;-2.00;99.90;;;;;;7381684;19;20341;-80
2023/02/07 11:06:23;;;;;;;23.67;16.50;;;-1.90;99.90;;;;;;7383932;19;20316;-79
2023/02/07 11:08:48;;;;;;;19.48;14.40;;;-1.80;99.90;;;;;;7382513;19;20332;-84
2023/02/07 11:11:28;;;;;;;18.83;13.63;;;-1.70;99.90;;;;;;7382564;19;20337;-80
2023/02/07 11:13:54;;;;;;;22.95;13.73;;;-1.60;99.90;;;;;;7381912;19;20353;-86
2023/02/07 11:16:22;;;;;;;43.08;25.67;;;-1.40;99.90;;;;;;7384861;19;20325;-84
2023/02/07 11:18:56;;;;;;;27.77;17.88;;;-1.30;99.90;;;;;;7381811;19;20345;-79
2023/02/07 11:21:24;;;;;;;19.88;12.45;;;-1.10;99.90;;;;;;7382431;19;20654;-77
2023/02/07 11:23:51;;;;;;;20.77;14.77;;;-1.00;99.90;;;;;;7386735;19;20344;-80
2023/02/07 11:26:17;;;;;;;19.77;12.80;;;-0.80;99.90;;;;;;7389641;19;21169;-81
2023/02/07 11:28:43;;;;;;;19.48;13.45;;;-0.60;99.90;;;;;;7389028;19;20352;-81
2023/02/07 11:31:11;;;;;;;24.40;15.60;;;-0.50;99.90;;;;;;7388971;19;20878;-79
2023/02/07 11:33:36;;;;;;;22.60;14.60;;;-0.30;99.90;;;;;;7386661;19;20312;-78
2023/02/07 11:36:27;;;;;;;19.83;13.57;;;-0.20;99.90;;;;;;7391430;19;20876;-78
2023/02/07 11:38:57;;;;;;;23.77;13.80;;;0.00;99.90;;;;;;7285709;19;2020378;-81
2023/02/07 11:41:24;;;;;;;22.65;14.98;;;0.30;99.90;;;;;;7390081;19;20321;-84
2023/02/07 11:43:57;;;;;;;22.27;14.95;;;0.50;99.90;;;;;;7389749;19;20349;-78
2023/02/07 11:46:30;;;;;;;18.75;12.70;;;0.80;99.90;;;;;;7388504;19;20324;-86
2023/02/07 11:48:56;;;;;;;17.38;11.32;;;1.10;99.90;;;;;;7388759;19;20894;-79
2023/02/07 11:51:22;;;;;;;16.13;11.50;;;1.30;99.90;;;;;;7390868;19;20328;-81
2023/02/07 11:53:52;;;;;;;17.40;12.47;;;1.60;99.90;;;;;;7389284;19;20680;-86
2023/02/07 11:56:25;;;;;;;14.45;10.68;;;2.00;99.90;;;;;;7388274;19;20848;-79
2023/02/07 11:58:51;;;;;;;14.85;11.07;;;2.20;99.90;;;;;;7387706;19;20327;-78
2023/02/07 12:01:21;;;;;;;14.73;10.80;;;2.50;99.90;;;;;;7387910;19;20347;-81
2023/02/07 12:03:49;;;;;;;16.43;11.20;;;2.70;99.90;;;;;;7388352;19;20336;-79
2023/02/07 12:06:17;;;;;;;15.43;11.18;;;3.00;99.90;;;;;;7389985;19;20317;-79
2023/02/07 12:08:42;;;;;;;13.70;10.20;;;3.10;99.90;;;;;;7387748;19;20420;-79
2023/02/07 12:11:11;;;;;;;13.97;10.70;;;3.30;99.90;;;;;;7385594;19;21099;-80
2023/02/07 12:13:43;;;;;;;15.15;10.45;;;3.40;99.90;;;;;;7389198;19;20345;-80
2023/02/07 12:16:16;;;;;;;13.20;9.20;;;3.60;99.90;;;;;;7389087;19;20316;-77
2023/02/07 12:19:04;;;;;;;12.48;9.07;;;3.90;99.90;;;;;;7389689;19;20336;-78
2023/02/07 12:21:36;;;;;;;11.70;8.50;;;4.20;99.90;;;;;;7389100;19;20341;-81
2023/02/07 12:24:09;;;;;;;14.27;9.37;;;4.40;99.90;;;;;;7387477;19;20641;-81
2023/02/07 12:26:36;;;;;;;11.68;8.35;;;4.70;99.90;;;;;;7285780;19;2020267;-76
2023/02/07 12:29:20;;;;;;;11.65;8.80;;;4.90;99.90;;;;;;7388843;19;20329;-80
2023/02/07 12:31:55;;;;;;;10.90;7.70;;;4.90;99.90;;;;;;7288675;19;2004617;-78
2023/02/07 12:34:41;;;;;;;11.55;7.65;;;5.20;99.90;;;;;;7384977;19;20316;-79
2023/02/07 12:37:42;;;;;;;11.98;7.65;;;5.20;99.90;;;;;;7287741;19;2004353;-82
2023/02/07 12:40:43;;;;;;;15.23;7.90;;;5.30;99.90;;;;;;7284167;19;2005892;-80
2023/02/07 12:43:10;;;;;;;9.90;6.70;;;5.00;99.90;;;;;;7285542;19;2019857;-82